Time;durP1;ratioP1;P1;durP2;ratioP2;P2;SDS_P1;SDS_P2;PMS_P1;PMS_P2;Temp;Humidity;BMP_temperature;BMP_pressure;BME280_temperature;BME280_humidity;BME280_pressure;Samples;Min_cycle;Max_cycle;Signal;HPM_P1;HPM_P2
2022/12/12 00:02:25;;;;;;;2.03;1.93;;;-2.10;92.70;-3.60;95143.00;;;;4994917;28;20214;-65
2022/12/12 00:04:57;;;;;;;4.73;3.83;;;-2.30;92.70;-3.50;95132.00;;;;4994414;28;20305;-65
2022/12/12 00:07:25;;;;;;;4.40;3.33;;;-2.20;93.70;-3.40;95144.00;;;;4994904;28;20626;-65
2022/12/12 00:09:52;;;;;;;2.60;2.47;;;-2.30;93.70;-3.30;95154.00;;;;4994712;28;20699;-65
2022/12/12 00:12:19;;;;;;;4.07;3.37;;;-2.10;93.20;-3.40;95145.00;;;;4977031;28;20205;-65
2022/12/12 00:14:46;;;;;;;3.17;2.90;;;-2.20;92.80;-3.60;95137.00;;;;4994342;28;20220;-65
2022/12/12 00:17:13;;;;;;;3.70;2.63;;;-2.30;93.10;-3.50;95148.00;;;;4994286;28;20192;-65
2022/12/12 00:19:42;;;;;;;2.53;2.33;;;-2.30;93.80;-3.60;95148.00;;;;4994327;28;20286;-64
2022/12/12 00:22:09;;;;;;;1.80;1.70;;;-2.40;93.70;-3.80;95152.00;;;;4994374;28;20197;-64
2022/12/12 00:24:37;;;;;;;5.30;3.97;;;-2.50;94.30;-3.70;95135.00;;;;4994681;28;20221;-65
2022/12/12 00:27:04;;;;;;;6.40;4.73;;;-2.50;94.90;-3.50;95144.00;;;;4994150;28;20200;-65
2022/12/12 00:29:31;;;;;;;2.90;2.70;;;-2.40;95.10;-3.50;95149.00;;;;4994365;28;20202;-65
2022/12/12 00:31:59;;;;;;;2.67;2.07;;;-2.30;95.00;-3.60;95147.00;;;;4993860;28;20188;-65
2022/12/12 00:34:26;;;;;;;2.87;2.67;;;-2.30;94.50;-3.50;95132.00;;;;4993954;28;20708;-65
2022/12/12 00:36:53;;;;;;;2.83;2.63;;;-2.30;94.60;-3.50;95146.00;;;;4994005;28;20197;-65
2022/12/12 00:39:21;;;;;;;3.53;2.90;;;-2.30;94.50;-3.60;95121.00;;;;4994015;28;20197;-65
2022/12/12 00:41:50;;;;;;;4.90;3.33;;;-2.30;94.30;-3.40;95148.00;;;;4994441;28;20193;-65
2022/12/12 00:44:18;;;;;;;3.43;2.90;;;-2.30;94.50;-3.40;95139.00;;;;4994029;28;20684;-65
2022/12/12 00:46:45;;;;;;;8.63;2.53;;;-2.20;94.50;-3.30;95132.00;;;;4993867;28;20205;-65
2022/12/12 00:49:13;;;;;;;4.30;3.37;;;-2.20;94.60;-3.30;95146.00;;;;4994060;28;20207;-65
2022/12/12 00:51:40;;;;;;;2.50;2.40;;;-2.10;94.30;-3.30;95143.00;;;;4976369;28;20193;-65
2022/12/12 00:54:07;;;;;;;4.60;3.37;;;-2.10;94.00;-3.40;95137.00;;;;4993705;28;20214;-65
2022/12/12 00:56:34;;;;;;;3.33;2.90;;;-2.20;92.80;-3.50;95143.00;;;;4994285;28;20642;-65
2022/12/12 00:59:04;;;;;;;2.83;2.53;;;-2.30;93.10;-3.60;95143.00;;;;4993777;28;20196;-65
2022/12/12 01:01:33;;;;;;;7.40;3.33;;;-2.40;93.50;-3.70;95130.00;;;;4993929;28;20201;-65
2022/12/12 01:04:03;;;;;;;2.83;2.63;;;-2.30;93.80;-3.90;95137.00;;;;4977168;28;20721;-66
2022/12/12 01:06:31;;;;;;;3.03;2.57;;;-2.50;94.10;-3.80;95148.00;;;;4993855;28;20221;-65
2022/12/12 01:08:59;;;;;;;2.83;2.43;;;-2.50;95.30;-3.70;95144.00;;;;4993804;28;20196;-65
2022/12/12 01:11:27;;;;;;;4.63;2.63;;;-2.50;95.60;-3.60;95147.00;;;;4993884;28;20193;-65
2022/12/12 01:13:55;;;;;;;3.13;2.87;;;-2.40;95.30;-3.60;95143.00;;;;4993628;28;20224;-65
2022/12/12 01:16:24;;;;;;;2.63;2.50;;;-2.40;95.20;-3.50;95145.00;;;;4993691;28;20196;-66
2022/12/12 01:18:51;;;;;;;9.30;3.20;;;-2.30;95.50;-3.40;95152.00;;;;4993577;28;20193;-65
2022/12/12 01:21:20;;;;;;;1.87;1.77;;;-2.20;95.40;-3.30;95149.00;;;;4993812;28;20200;-65
2022/12/12 01:23:48;;;;;;;5.80;4.60;;;-2.20;94.60;-3.40;95150.00;;;;4993663;28;20221;-65
2022/12/12 01:26:19;;;;;;;3.10;2.80;;;-2.20;94.30;-3.30;95159.00;;;;4993428;28;20687;-65
2022/12/12 01:28:47;;;;;;;4.43;4.03;;;-2.20;94.20;-3.50;95163.00;;;;4993509;28;20640;-65
2022/12/12 01:31:14;;;;;;;4.07;3.13;;;-2.20;93.70;-3.50;95146.00;;;;4993506;28;20659;-65
2022/12/12 01:33:44;;;;;;;3.83;3.50;;;-2.30;94.00;-3.60;95162.00;;;;4993636;28;20691;-65
2022/12/12 01:36:15;;;;;;;4.53;3.57;;;-2.30;94.10;-3.80;95161.00;;;;4993447;28;20197;-65
2022/12/12 01:38:44;;;;;;;3.27;2.97;;;-2.50;94.10;-3.80;95167.00;;;;4993743;28;20239;-65
2022/12/12 01:41:11;;;;;;;5.27;4.83;;;-2.80;94.90;-3.80;95160.00;;;;4975949;28;20201;-65
2022/12/12 01:43:38;;;;;;;3.13;2.93;;;-2.60;95.60;-3.50;95164.00;;;;4994627;28;20221;-64
2022/12/12 01:46:41;;;;;;;3.03;2.73;;;-2.50;95.80;-3.70;95173.00;;;;5027792;23;20243;-61
2022/12/12 01:49:21;;;;;;;3.47;3.23;;;-2.50;94.70;-4.00;95178.00;;;;5036874;28;20180;-61
2022/12/12 01:51:52;;;;;;;3.70;3.40;;;-2.70;94.90;-4.30;95178.00;;;;5036436;28;20194;-61
2022/12/12 01:54:25;;;;;;;2.63;2.27;;;-3.00;95.80;-4.30;95171.00;;;;5036727;28;20222;-61
2022/12/12 01:56:56;;;;;;;5.37;2.97;;;-3.00;96.80;-4.10;95176.00;;;;5036291;28;20176;-61
2022/12/12 01:59:26;;;;;;;4.10;3.00;;;-2.90;97.30;-4.00;95176.00;;;;5036159;28;20202;-61
2022/12/12 02:01:55;;;;;;;4.47;4.07;;;-2.80;96.90;-3.80;95179.00;;;;5036679;28;20179;-61
2022/12/12 02:04:26;;;;;;;3.13;2.93;;;-2.70;96.50;-3.60;95178.00;;;;5036372;28;20277;-61
2022/12/12 02:06:56;;;;;;;3.33;3.13;;;-2.60;96.20;-3.90;95175.00;;;;5036099;28;20635;-61
2022/12/12 02:09:25;;;;;;;5.97;3.77;;;-2.60;95.00;-3.90;95180.00;;;;5036040;28;20191;-61
2022/12/12 02:11:55;;;;;;;2.50;2.30;;;-2.70;95.20;-4.10;95186.00;;;;5036474;28;20191;-61
2022/12/12 02:14:27;;;;;;;3.37;3.10;;;-2.80;94.80;-4.00;95177.00;;;;5035836;28;20220;-60
2022/12/12 02:17:34;;;;;;;2.33;2.13;;;-2.80;95.60;-4.00;95183.00;;;;5036178;28;20523;-61
2022/12/12 02:20:47;;;;;;;3.93;3.13;;;-2.80;95.40;-4.00;95176.00;;;;5035862;28;20183;-61
2022/12/12 02:24:00;;;;;;;4.73;4.10;;;-2.70;96.40;-4.20;95167.00;;;;5035767;28;20213;-60
2022/12/12 02:27:17;;;;;;;3.27;2.97;;;-2.90;94.90;-4.20;95172.00;;;;5036084;28;20191;-61
2022/12/12 02:30:19;;;;;;;3.37;3.17;;;-3.00;96.30;-4.40;95181.00;;;;5036282;28;20681;-61
2022/12/12 02:33:20;;;;;;;2.17;2.07;;;-3.10;96.50;-4.60;95165.00;;;;5036123;28;20187;-61
2022/12/12 02:36:02;;;;;;;4.40;3.73;;;-3.20;97.30;-4.60;95169.00;;;;5035450;28;20218;-61
2022/12/12 02:38:41;;;;;;;2.57;2.37;;;-3.30;98.30;-4.70;95177.00;;;;5035722;28;20197;-61
2022/12/12 02:41:22;;;;;;;2.07;1.97;;;-3.40;98.50;-4.50;95169.00;;;;5035805;28;20182;-60
2022/12/12 02:44:06;;;;;;;2.43;2.23;;;-3.30;98.90;-4.40;95178.00;;;;5017573;28;20231;-61
2022/12/12 02:46:41;;;;;;;2.33;2.20;;;-3.20;98.70;-4.40;95171.00;;;;5035673;28;20183;-60
2022/12/12 02:49:19;;;;;;;3.00;2.70;;;-3.20;98.40;-4.30;95176.00;;;;5036173;28;20195;-60
2022/12/12 02:51:48;;;;;;;3.13;2.87;;;-3.10;98.40;-4.20;95162.00;;;;5035460;28;20630;-60
2022/12/12 02:54:20;;;;;;;3.07;2.87;;;-3.00;98.10;-4.20;95158.00;;;;5035543;28;20210;-60
2022/12/12 02:56:55;;;;;;;5.47;3.67;;;-2.90;97.40;-4.40;95165.00;;;;5035522;28;20179;-60
2022/12/12 02:59:29;;;;;;;4.57;3.30;;;-3.10;96.40;-4.50;95145.00;;;;5035191;28;20273;-61
2022/12/12 03:02:47;;;;;;;6.13;3.90;;;-3.20;96.50;-4.70;95165.00;;;;5035771;28;20178;-60
2022/12/12 03:08:40;;;;;;;2.63;2.47;;;-3.30;97.50;-4.40;95169.00;;;;5035036;28;20198;-60
2022/12/12 03:11:14;;;;;;;3.27;2.93;;;-3.20;96.60;-4.30;95166.00;;;;5035513;28;20551;-60
2022/12/12 03:13:49;;;;;;;3.47;2.87;;;-3.10;96.10;-4.20;95175.00;;;;5034893;28;20190;-60
2022/12/12 03:16:28;;;;;;;3.57;3.27;;;-2.90;95.70;-4.30;95174.00;;;;5034881;28;20178;-61
2022/12/12 03:19:07;;;;;;;11.00;2.60;;;-3.00;95.50;-4.30;95178.00;;;;5035338;28;20195;-60
2022/12/12 03:21:45;;;;;;;3.33;2.77;;;-3.10;95.90;-4.30;95172.00;;;;5035018;28;20176;-61
2022/12/12 03:24:23;;;;;;;6.43;3.37;;;-3.10;95.70;-4.30;95183.00;;;;5034770;28;20677;-60
2022/12/12 03:26:55;;;;;;;6.77;2.70;;;-3.00;95.70;-4.40;95172.00;;;;5034964;28;20182;-61
2022/12/12 03:29:31;;;;;;;4.60;3.70;;;-3.10;95.70;-4.40;95170.00;;;;5035019;28;20184;-61
2022/12/12 03:32:09;;;;;;;3.57;3.30;;;-3.10;96.50;-4.40;95171.00;;;;5035169;28;20184;-61
2022/12/12 03:34:42;;;;;;;3.93;3.00;;;-3.10;96.70;-4.30;95157.00;;;;5034427;28;20696;-60
2022/12/12 03:37:18;;;;;;;2.77;2.50;;;-3.10;96.50;-4.10;95170.00;;;;5035021;28;20187;-61
2022/12/12 03:39:52;;;;;;;2.93;2.73;;;-2.90;96.40;-4.10;95197.00;;;;5034671;28;20181;-60
2022/12/12 03:42:25;;;;;;;5.67;4.07;;;-2.90;96.30;-4.10;95186.00;;;;5034634;28;20176;-60
2022/12/12 03:45:01;;;;;;;3.20;2.90;;;-2.90;96.10;-4.00;95194.00;;;;5034159;28;20227;-60
2022/12/12 03:47:37;;;;;;;4.57;4.17;;;-2.80;96.00;-3.90;95191.00;;;;5034786;28;20180;-60
2022/12/12 03:50:11;;;;;;;3.60;3.30;;;-2.70;95.40;-4.30;95192.00;;;;5034216;28;20576;-60
2022/12/12 03:52:49;;;;;;;3.77;3.47;;;-3.00;94.20;-4.20;95187.00;;;;5034383;28;20570;-60
2022/12/12 03:55:24;;;;;;;2.90;1.83;;;-3.00;94.70;-4.50;95190.00;;;;5034178;28;20599;-61
2022/12/12 03:57:59;;;;;;;3.63;3.37;;;-3.20;93.70;-4.40;95197.00;;;;5034047;28;20178;-60
2022/12/12 04:00:31;;;;;;;3.83;3.43;;;-3.10;95.30;-4.30;95192.00;;;;5034570;28;20191;-60
2022/12/12 04:03:09;;;;;;;3.83;3.30;;;-3.10;95.20;-4.40;95196.00;;;;5034146;28;20278;-61
2022/12/12 04:06:25;;;;;;;2.23;2.03;;;-3.10;94.80;-4.40;95190.00;;;;5033706;28;20216;-60
2022/12/12 04:08:34;;;;;;;2.43;2.23;;;-3.20;93.80;-4.40;95203.00;;;;5033719;28;20199;-60
2022/12/12 04:14:09;;;;;;;3.27;2.33;;;-3.50;93.40;-5.00;95184.00;;;;5033626;28;20204;-60
2022/12/12 04:16:42;;;;;;;2.53;2.27;;;-3.70;96.00;-4.70;95191.00;;;;5033976;28;20180;-60
2022/12/12 04:23:13;;;;;;;2.70;2.33;;;-3.60;96.20;-4.70;95195.00;;;;5033937;28;20586;-59
2022/12/12 04:25:01;;;;;;;2.57;2.37;;;-3.50;95.80;-4.70;95202.00;;;;5033887;28;20245;-60
2022/12/12 04:27:35;;;;;;;2.07;1.83;;;-3.50;95.50;-4.70;95203.00;;;;5033550;28;20193;-60
2022/12/12 04:30:06;;;;;;;3.67;2.67;;;-3.40;95.40;-4.70;95188.00;;;;5033724;28;20174;-61
2022/12/12 04:32:39;;;;;;;3.80;3.10;;;-3.40;94.80;-5.20;95196.00;;;;5033453;28;20686;-60
2022/12/12 04:35:13;;;;;;;2.23;2.13;;;-3.80;93.90;-5.30;95208.00;;;;5033672;28;20552;-60
2022/12/12 04:37:47;;;;;;;4.33;3.93;;;-3.90;95.30;-5.50;95206.00;;;;5033631;28;20189;-60
2022/12/12 04:40:22;;;;;;;3.90;2.70;;;-4.10;96.40;-5.80;95215.00;;;;5033315;28;20174;-59
2022/12/12 04:42:56;;;;;;;3.77;3.40;;;;;-5.60;95214.00;;;;5033380;28;20178;-62
2022/12/12 04:45:33;;;;;;;2.33;2.23;;;-4.30;98.10;-5.40;95209.00;;;;5033048;28;20225;-60
2022/12/12 04:48:03;;;;;;;6.70;4.27;;;-4.20;98.60;-5.30;95218.00;;;;5033404;28;20677;-60
2022/12/12 04:50:34;;;;;;;4.33;3.53;;;-4.10;98.40;-5.10;95219.00;;;;5033395;28;20181;-60
2022/12/12 04:53:07;;;;;;;5.27;4.30;;;-3.90;97.30;-5.20;95218.00;;;;5033345;28;20196;-60
2022/12/12 04:55:42;;;;;;;2.67;2.50;;;-3.90;95.90;-5.30;95220.00;;;;5033089;28;20221;-60
2022/12/12 04:58:10;;;;;;;3.23;2.93;;;-4.00;95.50;-5.40;95223.00;;;;5033114;28;20177;-62
2022/12/12 05:00:48;;;;;;;2.30;2.17;;;-4.10;96.20;-5.40;95222.00;;;;5032991;28;20285;-61
2022/12/12 05:03:24;;;;;;;2.90;2.73;;;-4.10;96.70;-5.30;95191.00;;;;5033569;28;20193;-61
2022/12/12 05:05:56;;;;;;;1.63;1.53;;;-4.00;97.40;-5.00;95219.00;;;;5033040;28;20209;-61
2022/12/12 05:08:29;;;;;;;4.93;3.00;;;-3.90;97.40;-5.20;95205.00;;;;5015330;28;20197;-61
2022/12/12 05:11:03;;;;;;;1.70;1.60;;;-3.90;96.40;-5.10;95218.00;;;;5033164;28;20232;-61
2022/12/12 05:13:34;;;;;;;2.90;2.70;;;-3.90;96.60;-5.00;95231.00;;;;5033518;28;20185;-61
2022/12/12 05:16:06;;;;;;;3.27;2.77;;;-3.80;96.10;-5.50;95228.00;;;;5033073;28;20206;-61
2022/12/12 05:18:33;;;;;;;1.77;1.67;;;-4.10;94.80;-5.70;95233.00;;;;5034551;28;20634;-61
2022/12/12 05:21:00;;;;;;;4.47;4.07;;;-4.30;96.20;-5.40;95235.00;;;;5037021;28;20190;-61
2022/12/12 05:23:27;;;;;;;4.17;3.23;;;-4.20;97.10;-5.50;95235.00;;;;5019233;28;20193;-61
2022/12/12 05:25:54;;;;;;;2.57;2.37;;;-4.20;96.10;-5.50;95230.00;;;;5019067;28;20443;-61
2022/12/12 05:28:23;;;;;;;3.30;2.93;;;-4.30;96.60;-5.70;95232.00;;;;5036882;28;20190;-61
2022/12/12 05:30:50;;;;;;;2.77;2.20;;;-4.40;96.30;-6.00;95236.00;;;;5036843;28;20193;-61
2022/12/12 05:33:17;;;;;;;3.67;2.97;;;-4.60;96.50;-6.00;95232.00;;;;5036672;28;20660;-61
2022/12/12 05:35:44;;;;;;;2.30;2.20;;;-4.70;97.80;-5.90;95236.00;;;;5036589;28;20205;-61
2022/12/12 05:38:11;;;;;;;7.03;4.57;;;-4.70;97.70;-5.80;95234.00;;;;5036922;28;20199;-61
2022/12/12 05:40:38;;;;;;;2.33;2.13;;;-4.60;98.20;-5.70;95246.00;;;;5036572;28;20193;-60
2022/12/12 05:43:05;;;;;;;2.87;2.60;;;-4.50;98.50;-5.90;95243.00;;;;5036497;28;20194;-60
2022/12/12 05:45:33;;;;;;;3.40;3.20;;;-4.60;97.20;-5.90;95243.00;;;;5036177;28;20703;-60
2022/12/12 05:48:00;;;;;;;8.60;3.83;;;-4.60;97.20;-5.70;95244.00;;;;5036496;28;20668;-60
2022/12/12 05:50:27;;;;;;;2.93;2.27;;;-4.50;97.50;-5.50;95238.00;;;;5036731;28;20190;-60
2022/12/12 05:52:54;;;;;;;5.03;2.67;;;-4.30;97.70;-5.50;95242.00;;;;5036589;28;20186;-61
2022/12/12 05:55:21;;;;;;;4.60;3.47;;;-4.20;97.20;-5.50;95240.00;;;;5036331;28;20222;-61
2022/12/12 05:57:48;;;;;;;6.40;3.33;;;-4.20;96.70;-5.50;95252.00;;;;5036171;28;20271;-61
2022/12/12 06:00:16;;;;;;;3.90;3.27;;;-4.20;95.80;-5.60;95250.00;;;;5036255;28;20648;-61
2022/12/12 06:02:44;;;;;;;4.50;3.40;;;-4.30;95.10;-5.70;95248.00;;;;5036165;28;20196;-61
2022/12/12 06:05:11;;;;;;;2.70;2.47;;;-4.40;95.00;-5.90;95252.00;;;;5036034;28;20228;-61
2022/12/12 06:07:38;;;;;;;4.20;2.73;;;-4.50;94.90;-5.90;95247.00;;;;5036326;28;20215;-61
2022/12/12 06:10:07;;;;;;;2.20;2.10;;;-4.60;95.50;-5.70;95251.00;;;;5035997;28;20200;-61
2022/12/12 06:12:34;;;;;;;6.60;2.70;;;-4.50;96.40;-6.00;95262.00;;;;5035953;28;20194;-61
2022/12/12 06:15:02;;;;;;;4.17;3.27;;;-4.70;96.00;-6.00;95261.00;;;;5036150;28;20216;-61
2022/12/12 06:17:29;;;;;;;3.27;3.03;;;-4.60;96.00;-5.90;95252.00;;;;5018234;28;20189;-61
2022/12/12 06:19:57;;;;;;;3.20;3.00;;;-4.70;96.60;-5.80;95257.00;;;;5035926;28;20205;-61
2022/12/12 06:22:24;;;;;;;1.90;1.77;;;-4.60;96.80;-5.80;95258.00;;;;5036050;28;20196;-60
2022/12/12 06:24:51;;;;;;;2.07;1.97;;;-4.60;96.70;-5.80;95252.00;;;;5035684;28;20221;-61
2022/12/12 06:27:18;;;;;;;3.50;2.47;;;-4.50;96.50;-5.90;95257.00;;;;5035954;28;20224;-61
2022/12/12 06:29:45;;;;;;;2.50;2.23;;;-4.60;95.80;-5.90;95264.00;;;;5035115;28;20660;-62
2022/12/12 06:32:12;;;;;;;6.43;2.93;;;-4.60;96.40;-5.80;95265.00;;;;5035659;28;20636;-61
2022/12/12 06:34:40;;;;;;;2.80;2.53;;;-4.60;96.70;-5.80;95266.00;;;;5035792;28;20310;-61
2022/12/12 06:37:09;;;;;;;5.33;2.27;;;-4.50;97.00;-5.70;95243.00;;;;5035696;28;20282;-61
2022/12/12 06:39:37;;;;;;;3.40;2.30;;;-4.50;96.30;-5.80;95250.00;;;;5035857;28;20185;-61
2022/12/12 06:42:04;;;;;;;4.13;2.43;;;-4.50;95.40;-5.70;95263.00;;;;5035485;28;20194;-61
2022/12/12 06:44:33;;;;;;;12.10;3.53;;;-4.50;95.80;-5.50;95268.00;;;;5017448;28;20687;-61
2022/12/12 06:47:00;;;;;;;4.27;3.90;;;-4.30;97.20;-5.80;95264.00;;;;5035773;28;20196;-61
2022/12/12 06:49:27;;;;;;;2.77;2.43;;;-4.50;95.30;-6.00;95273.00;;;;5035324;28;20727;-61
2022/12/12 06:51:54;;;;;;;3.07;2.73;;;-4.60;94.80;-6.10;95268.00;;;;5017524;28;20200;-61
2022/12/12 06:54:22;;;;;;;3.90;3.57;;;-4.80;95.80;-5.90;95263.00;;;;5035382;28;20554;-62
2022/12/12 06:56:49;;;;;;;3.10;2.80;;;-4.70;96.70;-5.80;95264.00;;;;5035228;28;20196;-61
2022/12/12 06:59:17;;;;;;;2.13;2.03;;;-4.60;96.40;-5.70;95261.00;;;;5035431;28;20197;-61
2022/12/12 07:01:44;;;;;;;4.27;3.00;;;-4.50;96.50;-6.00;95267.00;;;;5035137;28;20192;-61
2022/12/12 07:04:13;;;;;;;5.73;4.43;;;-4.70;95.00;-5.90;95263.00;;;;5017148;28;20230;-61
2022/12/12 07:06:40;;;;;;;4.63;3.90;;;-4.60;95.20;-5.90;95276.00;;;;5035104;28;20194;-63
2022/12/12 07:09:07;;;;;;;2.33;2.03;;;-4.70;95.30;-6.20;95273.00;;;;5035563;28;20556;-61
2022/12/12 07:11:36;;;;;;;5.77;3.53;;;-4.90;94.90;-6.30;95274.00;;;;5034866;28;20216;-61
2022/12/12 07:14:04;;;;;;;3.37;2.37;;;-5.00;95.90;-6.10;95281.00;;;;5035172;28;20595;-62
2022/12/12 07:16:31;;;;;;;2.23;2.13;;;-4.90;96.30;-6.00;95274.00;;;;5035129;28;20192;-60
2022/12/12 07:18:58;;;;;;;3.00;2.80;;;-4.80;96.30;-5.80;95288.00;;;;5017013;28;20651;-60
2022/12/12 07:21:26;;;;;;;3.87;3.53;;;-4.70;96.30;-6.00;95279.00;;;;5035358;28;20200;-64
2022/12/12 07:23:53;;;;;;;3.40;2.73;;;-4.70;94.90;-6.20;95265.00;;;;5034526;28;20193;-61
2022/12/12 07:26:23;;;;;;;3.13;2.43;;;-4.90;94.20;-6.20;95290.00;;;;5016828;28;20664;-61
2022/12/12 07:28:52;;;;;;;1.73;1.60;;;-4.90;95.20;-6.20;95266.00;;;;5034571;28;20193;-61
2022/12/12 07:31:24;;;;;;;2.63;2.43;;;-4.90;95.50;-6.10;95288.00;;;;5034797;28;20544;-61
2022/12/12 07:33:51;;;;;;;3.60;2.73;;;-4.80;96.10;-5.90;95288.00;;;;5034519;28;20178;-61
2022/12/12 07:36:19;;;;;;;4.60;3.47;;;-4.80;95.90;-6.00;95289.00;;;;5034492;28;20200;-61
2022/12/12 07:38:46;;;;;;;3.33;3.13;;;-4.80;95.40;-6.00;95294.00;;;;5016646;28;20203;-61
2022/12/12 07:41:15;;;;;;;4.80;4.37;;;-4.70;95.50;-5.90;95290.00;;;;5033582;28;20193;-61
2022/12/12 07:43:45;;;;;;;2.87;2.13;;;-4.70;95.30;-5.70;95294.00;;;;5034374;28;20181;-61
2022/12/12 07:46:17;;;;;;;9.17;3.77;;;-4.50;94.90;-5.70;95285.00;;;;5016559;28;20324;-62
2022/12/12 07:48:44;;;;;;;3.10;2.83;;;-4.50;93.70;-5.90;95302.00;;;;5016521;28;20195;-61
2022/12/12 07:51:12;;;;;;;2.83;2.63;;;-4.60;92.80;-5.80;95301.00;;;;5022081;28;20202;-62
2022/12/12 07:53:39;;;;;;;3.93;3.63;;;-4.60;93.70;-5.70;95296.00;;;;5015573;28;20192;-61
2022/12/12 07:56:07;;;;;;;2.47;2.37;;;-4.50;93.70;-5.70;95306.00;;;;5017560;28;20218;-61
2022/12/12 07:58:35;;;;;;;2.77;2.53;;;-4.50;93.80;-5.60;95298.00;;;;5012526;28;20193;-61
2022/12/12 08:01:08;;;;;;;4.50;3.13;;;-4.40;93.80;-5.80;95310.00;;;;5024015;28;20205;-61
2022/12/12 08:03:37;;;;;;;4.83;3.70;;;-4.50;93.20;-5.90;95306.00;;;;5014132;28;20186;-61
2022/12/12 08:06:06;;;;;;;2.37;2.27;;;-4.50;93.80;-5.60;95298.00;;;;5011807;28;20271;-61
2022/12/12 08:08:33;;;;;;;3.90;2.87;;;-4.40;95.00;-5.40;95316.00;;;;5012286;28;20217;-62
2022/12/12 08:11:04;;;;;;;2.97;2.77;;;-4.30;95.20;-5.30;95317.00;;;;5011987;28;20209;-61
2022/12/12 08:13:34;;;;;;;7.87;4.47;;;-4.10;94.90;-5.10;95313.00;;;;5027275;28;20190;-62
2022/12/12 08:16:03;;;;;;;2.97;1.87;;;-4.00;94.70;-5.10;95314.00;;;;5011848;28;20588;-62
2022/12/12 08:18:30;;;;;;;3.10;2.90;;;-3.90;93.70;-5.00;95316.00;;;;5011896;28;20253;-62
2022/12/12 08:20:58;;;;;;;3.10;2.40;;;-3.80;93.70;-4.90;95311.00;;;;5022104;28;20221;-62
2022/12/12 08:23:25;;;;;;;5.03;3.63;;;-3.70;93.40;-4.90;95322.00;;;;5011859;28;20202;-62
2022/12/12 08:25:52;;;;;;;7.60;4.57;;;-3.70;93.00;-4.80;95318.00;;;;5011704;28;20233;-62
2022/12/12 08:28:19;;;;;;;3.40;3.10;;;-3.60;92.80;-4.80;95323.00;;;;5010861;28;20191;-61
2022/12/12 08:30:50;;;;;;;2.60;2.40;;;-3.60;92.00;-4.80;95320.00;;;;5011447;28;20269;-61
2022/12/12 08:33:18;;;;;;;3.57;2.67;;;-3.50;91.90;-4.70;95327.00;;;;5022054;28;20195;-62
2022/12/12 08:35:46;;;;;;;2.80;2.63;;;-3.50;91.80;-4.70;95323.00;;;;5031252;28;20222;-62
2022/12/12 08:38:14;;;;;;;2.33;2.20;;;-3.50;91.50;-4.50;95313.00;;;;5031193;28;20724;-62
2022/12/12 08:40:41;;;;;;;3.30;3.00;;;-3.30;91.80;-4.50;95317.00;;;;5031566;28;20202;-62
2022/12/12 08:43:09;;;;;;;3.20;2.97;;;-3.30;91.40;-4.40;95314.00;;;;5025255;28;20200;-62
2022/12/12 08:45:37;;;;;;;5.53;3.97;;;-3.30;91.00;-4.40;95325.00;;;;5011277;28;20232;-62
2022/12/12 08:48:06;;;;;;;2.47;2.27;;;-3.20;90.30;-4.30;95332.00;;;;5011467;28;20213;-62
2022/12/12 08:50:33;;;;;;;2.50;2.27;;;-3.10;90.00;-4.20;95325.00;;;;5022675;28;20196;-62
2022/12/12 08:53:00;;;;;;;6.67;4.20;;;-3.00;89.60;-4.20;95325.00;;;;5031065;28;20531;-62
2022/12/12 08:55:30;;;;;;;2.37;2.17;;;-3.00;89.30;-4.10;95327.00;;;;5014831;28;20243;-62
2022/12/12 08:57:57;;;;;;;4.10;3.73;;;-2.90;89.10;-3.90;95325.00;;;;5022816;28;20274;-62
2022/12/12 09:00:24;;;;;;;1.77;1.67;;;-2.80;88.50;-3.90;95332.00;;;;5030945;28;20196;-61
2022/12/12 09:02:51;;;;;;;2.83;2.60;;;-2.80;88.00;-3.80;95341.00;;;;5030908;28;20194;-62
2022/12/12 09:05:18;;;;;;;4.37;4.03;;;;;-4.00;95336.00;;;;5025887;28;20588;-61
2022/12/12 09:07:46;;;;;;;4.07;2.70;;;-2.70;85.80;-3.90;95346.00;;;;5011073;28;20212;-61
2022/12/12 09:10:13;;;;;;;2.33;2.23;;;-2.70;88.00;-3.90;95338.00;;;;5011348;28;20507;-61
2022/12/12 09:12:41;;;;;;;3.37;2.73;;;-2.70;87.50;-3.80;95331.00;;;;5005016;28;20206;-61
2022/12/12 09:15:09;;;;;;;1.73;1.63;;;-2.60;87.40;-3.80;95337.00;;;;5028999;28;20218;-62
2022/12/12 09:17:36;;;;;;;6.97;3.47;;;-2.60;86.90;-3.70;95316.00;;;;5011105;28;20235;-61
2022/12/12 09:20:04;;;;;;;2.90;2.70;;;-2.60;87.00;-3.50;95345.00;;;;5010966;28;20200;-61
2022/12/12 09:22:32;;;;;;;2.53;2.33;;;-2.40;87.30;-3.20;95338.00;;;;5011033;28;20204;-61
2022/12/12 09:24:59;;;;;;;6.10;3.57;;;-2.10;87.10;-3.10;95337.00;;;;5010853;28;20231;-62
2022/12/12 09:27:26;;;;;;;1.87;1.77;;;-2.00;86.20;-3.10;95342.00;;;;5018102;28;20243;-62
2022/12/12 09:29:55;;;;;;;4.77;3.00;;;-2.00;85.70;-3.10;95344.00;;;;5030712;28;20201;-61
2022/12/12 09:32:22;;;;;;;2.30;2.20;;;-1.90;84.60;-3.00;95339.00;;;;5030729;28;20219;-61
2022/12/12 09:34:49;;;;;;;2.10;1.93;;;-1.80;83.70;-2.90;95345.00;;;;5013437;28;20271;-61
2022/12/12 09:37:17;;;;;;;3.63;3.33;;;-1.70;84.10;-2.60;95335.00;;;;5028338;28;20190;-61
2022/12/12 09:39:44;;;;;;;2.87;2.67;;;-1.60;83.30;-2.40;95333.00;;;;5030639;28;20195;-61
2022/12/12 09:42:18;;;;;;;3.03;2.83;;;;;-2.30;95352.00;;;;5030492;28;20193;-62
2022/12/12 09:44:46;;;;;;;3.70;2.87;;;-1.30;81.70;-2.20;95345.00;;;;5017356;28;20265;-62
2022/12/12 09:47:22;;;;;;;8.17;2.57;;;-1.20;82.10;-2.20;95345.00;;;;5010868;28;20201;-61
2022/12/12 09:49:53;;;;;;;2.60;2.40;;;-1.10;80.30;-2.50;95336.00;;;;5010943;28;20360;-62
2022/12/12 09:52:32;;;;;;;2.50;2.30;;;-1.30;78.90;-2.90;95353.00;;;;5026274;28;20674;-61
2022/12/12 09:55:02;;;;;;;6.03;3.40;;;-1.50;79.20;-2.90;95342.00;;;;5010739;28;20217;-61
2022/12/12 09:57:39;;;;;;;3.53;3.23;;;-1.70;80.70;-3.00;95350.00;;;;5010776;28;20660;-61
2022/12/12 10:00:11;;;;;;;2.13;2.03;;;-1.80;80.40;-2.80;95339.00;;;;5010703;28;20215;-61
2022/12/12 10:03:05;;;;;;;2.00;1.83;;;-1.70;82.20;-2.50;95352.00;;;;5010765;28;20273;-61
2022/12/12 10:05:44;;;;;;;2.53;2.43;;;-1.50;82.10;-2.30;95344.00;;;;5031091;28;20225;-62
2022/12/12 10:08:20;;;;;;;1.63;1.53;;;-1.30;82.10;-2.00;95340.00;;;;5034042;28;20188;-61
2022/12/12 10:10:54;;;;;;;2.77;2.63;;;-1.00;81.90;-1.80;95338.00;;;;5013346;28;20556;-61
2022/12/12 10:13:25;;;;;;;2.30;2.13;;;-0.80;80.10;-1.90;95323.00;;;;5014332;28;20200;-61
2022/12/12 10:15:58;;;;;;;2.93;2.60;;;-0.90;79.80;-1.80;95330.00;;;;5014206;28;20221;-61
2022/12/12 10:18:32;;;;;;;4.27;3.87;;;-0.70;79.10;-1.50;95334.00;;;;5014129;28;20215;-61
2022/12/12 10:21:04;;;;;;;1.03;1.03;;;-0.60;79.00;-1.60;95339.00;;;;5014175;28;20223;-59
2022/12/12 10:23:41;;;;;;;2.57;2.47;;;-0.50;79.30;-1.30;95331.00;;;;5014123;28;20201;-62
2022/12/12 10:26:17;;;;;;;2.53;2.43;;;-0.30;77.60;-1.00;95328.00;;;;5014190;28;20231;-62
2022/12/12 10:28:46;;;;;;;2.03;1.93;;;0.00;76.50;-0.70;95316.00;;;;5030291;28;20185;-61
2022/12/12 10:31:31;;;;;;;2.43;2.23;;;0.20;74.80;-0.80;95324.00;;;;5033894;28;20544;-60
2022/12/12 10:34:21;;;;;;;2.17;2.07;;;0.20;71.80;-0.20;95331.00;;;;5033474;28;20204;-62
2022/12/12 10:37:07;;;;;;;1.47;1.43;;;0.70;69.70;-0.10;95322.00;;;;5013760;28;20189;-61
2022/12/12 10:39:46;;;;;;;1.53;1.43;;;;;0.10;95328.00;;;;5013848;28;20640;-61
2022/12/12 10:42:25;;;;;;;3.83;1.43;;;1.00;63.10;0.20;95319.00;;;;5013711;28;20197;-61
2022/12/12 10:45:21;;;;;;;6.13;2.60;;;1.10;63.10;0.30;95316.00;;;;5013419;28;20224;-61
2022/12/12 10:47:49;;;;;;;1.97;1.67;;;1.20;62.30;0.40;95325.00;;;;5030005;28;20652;-62
2022/12/12 10:50:28;;;;;;;1.10;1.10;;;1.40;60.90;0.80;95323.00;;;;5031835;28;20205;-62
2022/12/12 10:52:55;;;;;;;1.27;1.27;;;1.70;59.50;1.10;95324.00;;;;5013697;28;20195;-62
2022/12/12 10:55:36;;;;;;;1.20;1.20;;;1.90;59.10;1.10;95313.00;;;;5013407;28;20740;-62
2022/12/12 10:58:05;;;;;;;2.33;2.10;;;2.00;57.80;1.60;95320.00;;;;5013582;28;20187;-62
2022/12/12 11:00:36;;;;;;;3.17;2.47;;;2.30;57.90;1.40;95314.00;;;;5028656;28;20730;-61
2022/12/12 11:03:22;;;;;;;1.10;1.10;;;2.30;55.20;1.80;95315.00;;;;5033212;28;20188;-61
2022/12/12 11:05:51;;;;;;;0.93;0.93;;;2.60;53.60;3.30;95249.00;;;;5031871;28;20231;-61
2022/12/12 11:08:26;;;;;;;0.83;0.83;;;3.30;54.40;5.30;95243.00;;;;5032513;28;20201;-62
2022/12/12 11:11:06;;;;;;;2.37;2.17;;;4.60;49.30;7.90;95243.00;;;;5013374;28;20202;-62
2022/12/12 11:13:46;;;;;;;1.50;1.40;;;6.80;43.80;9.40;95240.00;;;;5029111;28;20219;-61
2022/12/12 11:16:18;;;;;;;2.90;2.17;;;8.90;35.80;10.60;95247.00;;;;5014711;28;20248;-61
2022/12/12 11:19:00;;;;;;;1.70;1.60;;;9.90;32.00;11.40;95250.00;;;;5012901;28;20198;-62
2022/12/12 11:21:32;;;;;;;1.43;1.33;;;11.10;27.40;12.50;95245.00;;;;5028472;28;20214;-60
2022/12/12 11:24:06;;;;;;;1.70;1.60;;;12.20;25.30;13.50;95259.00;;;;5012733;28;20189;-60
2022/12/12 11:26:44;;;;;;;2.00;1.37;;;13.30;22.80;14.40;95242.00;;;;5012725;28;20208;-60
2022/12/12 11:29:30;;;;;;;0.80;0.80;;;14.00;20.90;13.60;95251.00;;;;5012869;28;20197;-60